sensor_id;sensor_type;location;lat;lon;timestamp;P1;durP1;ratioP1;P2;durP2;ratioP2
61385;SDS011;47256;18.904;-99.054;2023-03-01T00:02:18;5.70;;;2.83;;
61385;SDS011;47256;18.904;-99.054;2023-03-01T00:04:46;7.93;;;2.63;;
61385;SDS011;47256;18.904;-99.054;2023-03-01T00:07:20;11.50;;;2.17;;
61385;SDS011;47256;18.904;-99.054;2023-03-01T00:09:48;10.18;;;3.38;;
61385;SDS011;47256;18.904;-99.054;2023-03-01T00:12:15;3.63;;;2.88;;
61385;SDS011;47256;18.904;-99.054;2023-03-01T00:14:43;20.27;;;2.88;;
61385;SDS011;47256;18.904;-99.054;2023-03-01T00:17:10;13.48;;;4.00;;
61385;SDS011;47256;18.904;-99.054;2023-03-01T00:19:38;16.15;;;3.60;;
61385;SDS011;47256;18.904;-99.054;2023-03-01T00:22:05;7.75;;;3.10;;
61385;SDS011;47256;18.904;-99.054;2023-03-01T00:24:35;5.75;;;3.05;;
61385;SDS011;47256;18.904;-99.054;2023-03-01T00:27:02;9.82;;;2.75;;
61385;SDS011;47256;18.904;-99.054;2023-03-01T00:29:29;4.63;;;2.22;;
61385;SDS011;47256;18.904;-99.054;2023-03-01T00:31:57;6.03;;;2.63;;
61385;SDS011;47256;18.904;-99.054;2023-03-01T00:34:26;13.10;;;3.50;;
61385;SDS011;47256;18.904;-99.054;2023-03-01T00:36:54;3.35;;;2.20;;
61385;SDS011;47256;18.904;-99.054;2023-03-01T00:39:22;12.30;;;3.33;;
61385;SDS011;47256;18.904;-99.054;2023-03-01T00:41:51;17.17;;;3.22;;
61385;SDS011;47256;18.904;-99.054;2023-03-01T00:44:43;19.75;;;4.00;;
61385;SDS011;47256;18.904;-99.054;2023-03-01T00:47:11;8.35;;;3.03;;
61385;SDS011;47256;18.904;-99.054;2023-03-01T00:49:39;25.20;;;4.57;;
61385;SDS011;47256;18.904;-99.054;2023-03-01T00:52:07;14.35;;;4.57;;
61385;SDS011;47256;18.904;-99.054;2023-03-01T00:54:34;22.50;;;4.85;;
61385;SDS011;47256;18.904;-99.054;2023-03-01T00:57:01;17.65;;;5.00;;
61385;SDS011;47256;18.904;-99.054;2023-03-01T00:59:29;19.88;;;5.22;;
61385;SDS011;47256;18.904;-99.054;2023-03-01T01:01:57;15.00;;;5.40;;
61385;SDS011;47256;18.904;-99.054;2023-03-01T01:04:25;24.42;;;5.78;;
61385;SDS011;47256;18.904;-99.054;2023-03-01T01:06:52;11.88;;;4.10;;
61385;SDS011;47256;18.904;-99.054;2023-03-01T01:09:19;7.60;;;3.20;;
61385;SDS011;47256;18.904;-99.054;2023-03-01T01:11:47;8.60;;;3.78;;
61385;SDS011;47256;18.904;-99.054;2023-03-01T01:14:16;2.95;;;2.25;;
61385;SDS011;47256;18.904;-99.054;2023-03-01T01:16:45;23.75;;;3.85;;
61385;SDS011;47256;18.904;-99.054;2023-03-01T01:19:13;16.17;;;4.97;;
61385;SDS011;47256;18.904;-99.054;2023-03-01T01:21:41;12.65;;;4.15;;
61385;SDS011;47256;18.904;-99.054;2023-03-01T01:24:11;12.18;;;4.68;;
61385;SDS011;47256;18.904;-99.054;2023-03-01T01:26:38;19.70;;;6.30;;
61385;SDS011;47256;18.904;-99.054;2023-03-01T01:29:07;11.85;;;4.00;;
61385;SDS011;47256;18.904;-99.054;2023-03-01T01:31:34;27.13;;;9.05;;
61385;SDS011;47256;18.904;-99.054;2023-03-01T01:34:03;129.98;;;30.67;;
61385;SDS011;47256;18.904;-99.054;2023-03-01T01:36:33;105.82;;;30.77;;
61385;SDS011;47256;18.904;-99.054;2023-03-01T01:39:01;182.05;;;46.75;;
61385;SDS011;47256;18.904;-99.054;2023-03-01T01:41:28;24.45;;;10.98;;
61385;SDS011;47256;18.904;-99.054;2023-03-01T01:46:46;19.05;;;6.28;;
61385;SDS011;47256;18.904;-99.054;2023-03-01T01:51:48;22.83;;;6.82;;
61385;SDS011;47256;18.904;-99.054;2023-03-01T01:54:20;57.22;;;14.18;;
61385;SDS011;47256;18.904;-99.054;2023-03-01T01:57:14;43.60;;;12.13;;
61385;SDS011;47256;18.904;-99.054;2023-03-01T01:59:48;54.65;;;14.68;;
61385;SDS011;47256;18.904;-99.054;2023-03-01T02:02:22;37.45;;;12.15;;
61385;SDS011;47256;18.904;-99.054;2023-03-01T02:04:51;42.60;;;10.35;;
61385;SDS011;47256;18.904;-99.054;2023-03-01T02:07:25;31.05;;;7.57;;
61385;SDS011;47256;18.904;-99.054;2023-03-01T02:09:53;84.65;;;9.52;;
61385;SDS011;47256;18.904;-99.054;2023-03-01T02:12:23;67.50;;;9.57;;
61385;SDS011;47256;18.904;-99.054;2023-03-01T02:14:52;34.78;;;7.57;;
61385;SDS011;47256;18.904;-99.054;2023-03-01T02:17:19;24.58;;;6.50;;
61385;SDS011;47256;18.904;-99.054;2023-03-01T02:22:54;35.10;;;7.20;;
61385;SDS011;47256;18.904;-99.054;2023-03-01T02:28:05;22.63;;;7.28;;
61385;SDS011;47256;18.904;-99.054;2023-03-01T02:30:45;16.65;;;6.10;;
61385;SDS011;47256;18.904;-99.054;2023-03-01T02:33:34;15.43;;;6.72;;
61385;SDS011;47256;18.904;-99.054;2023-03-01T02:36:06;22.17;;;6.60;;
61385;SDS011;47256;18.904;-99.054;2023-03-01T02:38:40;50.67;;;12.93;;
61385;SDS011;47256;18.904;-99.054;2023-03-01T02:41:09;53.05;;;12.50;;
61385;SDS011;47256;18.904;-99.054;2023-03-01T02:43:39;45.22;;;9.73;;
61385;SDS011;47256;18.904;-99.054;2023-03-01T02:46:12;30.30;;;9.10;;
61385;SDS011;47256;18.904;-99.054;2023-03-01T02:48:46;32.65;;;8.98;;
61385;SDS011;47256;18.904;-99.054;2023-03-01T02:57:08;29.15;;;7.22;;
61385;SDS011;47256;18.904;-99.054;2023-03-01T02:59:36;17.25;;;5.55;;
61385;SDS011;47256;18.904;-99.054;2023-03-01T03:02:20;79.85;;;17.35;;
61385;SDS011;47256;18.904;-99.054;2023-03-01T03:05:17;47.65;;;14.02;;
61385;SDS011;47256;18.904;-99.054;2023-03-01T03:07:48;63.03;;;16.45;;
61385;SDS011;47256;18.904;-99.054;2023-03-01T03:10:22;216.20;;;50.28;;
61385;SDS011;47256;18.904;-99.054;2023-03-01T03:12:54;100.75;;;25.60;;
61385;SDS011;47256;18.904;-99.054;2023-03-01T03:15:24;76.13;;;22.02;;
61385;SDS011;47256;18.904;-99.054;2023-03-01T03:17:55;92.25;;;21.30;;
61385;SDS011;47256;18.904;-99.054;2023-03-01T03:20:24;61.00;;;17.67;;
61385;SDS011;47256;18.904;-99.054;2023-03-01T03:22:54;39.45;;;12.68;;
61385;SDS011;47256;18.904;-99.054;2023-03-01T03:25:26;42.55;;;11.80;;
61385;SDS011;47256;18.904;-99.054;2023-03-01T03:27:54;43.38;;;11.73;;
61385;SDS011;47256;18.904;-99.054;2023-03-01T03:30:27;48.65;;;11.98;;
61385;SDS011;47256;18.904;-99.054;2023-03-01T03:32:58;27.67;;;9.55;;
61385;SDS011;47256;18.904;-99.054;2023-03-01T03:37:59;25.23;;;10.80;;
61385;SDS011;47256;18.904;-99.054;2023-03-01T03:42:57;29.73;;;9.98;;
61385;SDS011;47256;18.904;-99.054;2023-03-01T03:45:24;30.05;;;11.27;;
61385;SDS011;47256;18.904;-99.054;2023-03-01T03:47:52;54.38;;;14.45;;
61385;SDS011;47256;18.904;-99.054;2023-03-01T03:50:22;30.95;;;10.32;;
61385;SDS011;47256;18.904;-99.054;2023-03-01T03:52:49;33.65;;;9.80;;
61385;SDS011;47256;18.904;-99.054;2023-03-01T03:55:16;37.47;;;12.52;;
61385;SDS011;47256;18.904;-99.054;2023-03-01T03:57:45;24.48;;;9.93;;
61385;SDS011;47256;18.904;-99.054;2023-03-01T04:00:21;33.30;;;9.93;;
61385;SDS011;47256;18.904;-99.054;2023-03-01T04:02:49;33.70;;;10.02;;
61385;SDS011;47256;18.904;-99.054;2023-03-01T04:05:18;31.52;;;9.55;;
61385;SDS011;47256;18.904;-99.054;2023-03-01T04:07:45;39.42;;;10.70;;
61385;SDS011;47256;18.904;-99.054;2023-03-01T04:10:17;30.00;;;10.88;;
61385;SDS011;47256;18.904;-99.054;2023-03-01T04:12:44;82.50;;;21.88;;
61385;SDS011;47256;18.904;-99.054;2023-03-01T04:15:11;104.60;;;25.70;;
61385;SDS011;47256;18.904;-99.054;2023-03-01T04:17:40;84.43;;;21.88;;
61385;SDS011;47256;18.904;-99.054;2023-03-01T04:20:13;52.10;;;16.00;;
61385;SDS011;47256;18.904;-99.054;2023-03-01T04:23:12;45.72;;;15.68;;
61385;SDS011;47256;18.904;-99.054;2023-03-01T04:25:48;23.50;;;9.80;;
61385;SDS011;47256;18.904;-99.054;2023-03-01T04:30:53;33.20;;;9.48;;
61385;SDS011;47256;18.904;-99.054;2023-03-01T04:33:24;24.15;;;9.55;;
61385;SDS011;47256;18.904;-99.054;2023-03-01T04:35:51;13.45;;;7.10;;
61385;SDS011;47256;18.904;-99.054;2023-03-01T04:38:19;22.85;;;8.70;;
61385;SDS011;47256;18.904;-99.054;2023-03-01T04:40:47;19.00;;;7.15;;
61385;SDS011;47256;18.904;-99.054;2023-03-01T04:43:14;18.25;;;6.63;;
61385;SDS011;47256;18.904;-99.054;2023-03-01T04:45:43;15.80;;;7.63;;
61385;SDS011;47256;18.904;-99.054;2023-03-01T04:48:10;12.95;;;6.53;;
61385;SDS011;47256;18.904;-99.054;2023-03-01T04:50:38;15.50;;;7.45;;
61385;SDS011;47256;18.904;-99.054;2023-03-01T04:53:05;24.23;;;8.50;;
61385;SDS011;47256;18.904;-99.054;2023-03-01T04:55:33;19.30;;;7.32;;
61385;SDS011;47256;18.904;-99.054;2023-03-01T04:58:00;15.10;;;7.10;;
61385;SDS011;47256;18.904;-99.054;2023-03-01T05:00:27;15.63;;;7.30;;
61385;SDS011;47256;18.904;-99.054;2023-03-01T05:02:55;18.60;;;7.45;;
61385;SDS011;47256;18.904;-99.054;2023-03-01T05:08:06;13.57;;;6.63;;
61385;SDS011;47256;18.904;-99.054;2023-03-01T05:10:34;33.47;;;8.52;;
61385;SDS011;47256;18.904;-99.054;2023-03-01T05:13:03;27.38;;;8.68;;
61385;SDS011;47256;18.904;-99.054;2023-03-01T05:15:31;23.60;;;8.13;;
61385;SDS011;47256;18.904;-99.054;2023-03-01T05:17:59;25.30;;;9.55;;
61385;SDS011;47256;18.904;-99.054;2023-03-01T05:20:27;26.88;;;10.88;;
61385;SDS011;47256;18.904;-99.054;2023-03-01T05:22:57;60.63;;;16.13;;
61385;SDS011;47256;18.904;-99.054;2023-03-01T05:25:26;32.17;;;11.63;;
61385;SDS011;47256;18.904;-99.054;2023-03-01T05:27:59;29.17;;;10.57;;
61385;SDS011;47256;18.904;-99.054;2023-03-01T05:30:31;24.98;;;10.93;;
61385;SDS011;47256;18.904;-99.054;2023-03-01T05:32:59;51.00;;;13.20;;
61385;SDS011;47256;18.904;-99.054;2023-03-01T05:35:27;18.05;;;9.80;;
61385;SDS011;47256;18.904;-99.054;2023-03-01T05:37:55;25.08;;;9.48;;
61385;SDS011;47256;18.904;-99.054;2023-03-01T05:40:23;18.05;;;8.80;;
61385;SDS011;47256;18.904;-99.054;2023-03-01T05:42:54;31.10;;;8.38;;
61385;SDS011;47256;18.904;-99.054;2023-03-01T05:45:23;16.25;;;8.02;;
61385;SDS011;47256;18.904;-99.054;2023-03-01T05:47:52;15.23;;;6.65;;
61385;SDS011;47256;18.904;-99.054;2023-03-01T05:50:22;11.48;;;7.35;;
61385;SDS011;47256;18.904;-99.054;2023-03-01T05:52:58;11.68;;;6.60;;
61385;SDS011;47256;18.904;-99.054;2023-03-01T05:55:31;13.35;;;7.07;;
61385;SDS011;47256;18.904;-99.054;2023-03-01T05:58:03;17.67;;;5.80;;
61385;SDS011;47256;18.904;-99.054;2023-03-01T06:00:32;15.80;;;7.00;;
61385;SDS011;47256;18.904;-99.054;2023-03-01T06:03:00;16.77;;;6.22;;
61385;SDS011;47256;18.904;-99.054;2023-03-01T06:05:28;18.45;;;7.25;;
61385;SDS011;47256;18.904;-99.054;2023-03-01T06:07:59;17.88;;;6.75;;
61385;SDS011;47256;18.904;-99.054;2023-03-01T06:10:27;16.67;;;6.97;;
61385;SDS011;47256;18.904;-99.054;2023-03-01T06:12:55;11.95;;;6.43;;
61385;SDS011;47256;18.904;-99.054;2023-03-01T06:15:24;16.40;;;6.85;;
61385;SDS011;47256;18.904;-99.054;2023-03-01T06:17:53;20.23;;;5.38;;
61385;SDS011;47256;18.904;-99.054;2023-03-01T06:20:23;25.45;;;7.65;;
61385;SDS011;47256;18.904;-99.054;2023-03-01T06:22:52;12.07;;;6.60;;
61385;SDS011;47256;18.904;-99.054;2023-03-01T06:25:20;13.02;;;5.95;;
61385;SDS011;47256;18.904;-99.054;2023-03-01T06:27:49;15.27;;;6.95;;
61385;SDS011;47256;18.904;-99.054;2023-03-01T06:30:18;26.67;;;7.20;;
61385;SDS011;47256;18.904;-99.054;2023-03-01T06:32:47;16.33;;;6.55;;
61385;SDS011;47256;18.904;-99.054;2023-03-01T06:35:16;11.32;;;5.63;;
61385;SDS011;47256;18.904;-99.054;2023-03-01T06:37:45;16.83;;;5.85;;
61385;SDS011;47256;18.904;-99.054;2023-03-01T06:40:14;13.13;;;5.60;;
61385;SDS011;47256;18.904;-99.054;2023-03-01T06:42:43;6.88;;;4.30;;
61385;SDS011;47256;18.904;-99.054;2023-03-01T06:45:15;11.43;;;5.82;;
61385;SDS011;47256;18.904;-99.054;2023-03-01T06:47:43;21.45;;;5.72;;
61385;SDS011;47256;18.904;-99.054;2023-03-01T06:50:11;17.27;;;5.10;;
61385;SDS011;47256;18.904;-99.054;2023-03-01T06:52:39;17.23;;;5.25;;
61385;SDS011;47256;18.904;-99.054;2023-03-01T06:55:06;11.82;;;5.93;;
61385;SDS011;47256;18.904;-99.054;2023-03-01T06:57:34;12.77;;;7.25;;
61385;SDS011;47256;18.904;-99.054;2023-03-01T07:00:02;9.63;;;6.18;;
61385;SDS011;47256;18.904;-99.054;2023-03-01T07:02:33;9.75;;;6.22;;
61385;SDS011;47256;18.904;-99.054;2023-03-01T07:05:01;16.27;;;6.22;;
61385;SDS011;47256;18.904;-99.054;2023-03-01T07:07:28;16.90;;;6.13;;
61385;SDS011;47256;18.904;-99.054;2023-03-01T07:09:56;18.02;;;6.22;;
61385;SDS011;47256;18.904;-99.054;2023-03-01T07:12:23;10.95;;;4.78;;
61385;SDS011;47256;18.904;-99.054;2023-03-01T07:14:50;7.75;;;5.03;;
61385;SDS011;47256;18.904;-99.054;2023-03-01T07:17:18;15.93;;;4.88;;
61385;SDS011;47256;18.904;-99.054;2023-03-01T07:19:45;10.40;;;5.63;;
61385;SDS011;47256;18.904;-99.054;2023-03-01T07:22:12;14.13;;;5.28;;
61385;SDS011;47256;18.904;-99.054;2023-03-01T07:24:40;19.58;;;6.75;;
61385;SDS011;47256;18.904;-99.054;2023-03-01T07:27:08;15.20;;;7.13;;
61385;SDS011;47256;18.904;-99.054;2023-03-01T07:29:36;16.65;;;6.70;;
61385;SDS011;47256;18.904;-99.054;2023-03-01T07:32:03;13.30;;;7.13;;
61385;SDS011;47256;18.904;-99.054;2023-03-01T07:34:31;16.55;;;7.18;;
61385;SDS011;47256;18.904;-99.054;2023-03-01T07:36:59;21.48;;;7.00;;
61385;SDS011;47256;18.904;-99.054;2023-03-01T07:39:26;16.92;;;6.22;;
61385;SDS011;47256;18.904;-99.054;2023-03-01T07:41:53;12.35;;;4.57;;
61385;SDS011;47256;18.904;-99.054;2023-03-01T07:44:21;12.65;;;4.53;;
61385;SDS011;47256;18.904;-99.054;2023-03-01T07:46:49;10.90;;;4.00;;
61385;SDS011;47256;18.904;-99.054;2023-03-01T07:49:18;9.32;;;5.07;;
61385;SDS011;47256;18.904;-99.054;2023-03-01T07:51:46;12.80;;;4.45;;
61385;SDS011;47256;18.904;-99.054;2023-03-01T07:54:13;10.35;;;5.00;;
61385;SDS011;47256;18.904;-99.054;2023-03-01T07:56:41;6.72;;;4.00;;
61385;SDS011;47256;18.904;-99.054;2023-03-01T07:59:08;10.57;;;4.78;;
61385;SDS011;47256;18.904;-99.054;2023-03-01T08:01:35;9.20;;;4.18;;
61385;SDS011;47256;18.904;-99.054;2023-03-01T08:04:03;10.52;;;5.03;;
61385;SDS011;47256;18.904;-99.054;2023-03-01T08:06:33;8.40;;;4.90;;
61385;SDS011;47256;18.904;-99.054;2023-03-01T08:09:02;8.18;;;4.88;;
61385;SDS011;47256;18.904;-99.054;2023-03-01T08:11:29;10.88;;;4.82;;
61385;SDS011;47256;18.904;-99.054;2023-03-01T08:13:56;19.10;;;5.78;;
61385;SDS011;47256;18.904;-99.054;2023-03-01T08:16:24;16.65;;;5.07;;
61385;SDS011;47256;18.904;-99.054;2023-03-01T08:18:52;10.43;;;4.88;;
61385;SDS011;47256;18.904;-99.054;2023-03-01T08:21:22;9.27;;;5.63;;
61385;SDS011;47256;18.904;-99.054;2023-03-01T08:23:49;16.77;;;7.47;;
61385;SDS011;47256;18.904;-99.054;2023-03-01T08:26:17;24.65;;;7.35;;
61385;SDS011;47256;18.904;-99.054;2023-03-01T08:28:46;33.30;;;12.13;;
61385;SDS011;47256;18.904;-99.054;2023-03-01T08:31:22;25.45;;;8.82;;
61385;SDS011;47256;18.904;-99.054;2023-03-01T08:33:53;26.10;;;6.97;;
61385;SDS011;47256;18.904;-99.054;2023-03-01T08:36:26;25.27;;;8.23;;
61385;SDS011;47256;18.904;-99.054;2023-03-01T08:38:55;13.43;;;6.97;;
61385;SDS011;47256;18.904;-99.054;2023-03-01T08:41:23;67.88;;;17.95;;
61385;SDS011;47256;18.904;-99.054;2023-03-01T08:43:51;94.10;;;25.33;;
61385;SDS011;47256;18.904;-99.054;2023-03-01T08:46:18;94.47;;;27.58;;
61385;SDS011;47256;18.904;-99.054;2023-03-01T08:48:46;71.75;;;24.15;;
61385;SDS011;47256;18.904;-99.054;2023-03-01T08:51:18;50.28;;;14.93;;
61385;SDS011;47256;18.904;-99.054;2023-03-01T08:53:48;44.13;;;13.35;;
61385;SDS011;47256;18.904;-99.054;2023-03-01T08:56:16;52.53;;;13.40;;
61385;SDS011;47256;18.904;-99.054;2023-03-01T08:58:45;44.92;;;13.98;;
61385;SDS011;47256;18.904;-99.054;2023-03-01T09:01:17;41.38;;;11.68;;
61385;SDS011;47256;18.904;-99.054;2023-03-01T09:03:45;44.45;;;12.70;;
61385;SDS011;47256;18.904;-99.054;2023-03-01T09:06:14;44.22;;;15.18;;
61385;SDS011;47256;18.904;-99.054;2023-03-01T09:08:43;51.72;;;13.75;;
61385;SDS011;47256;18.904;-99.054;2023-03-01T09:11:14;40.90;;;10.85;;
61385;SDS011;47256;18.904;-99.054;2023-03-01T09:13:45;49.30;;;13.15;;
61385;SDS011;47256;18.904;-99.054;2023-03-01T09:16:13;30.38;;;11.82;;
61385;SDS011;47256;18.904;-99.054;2023-03-01T09:18:43;28.40;;;11.80;;
61385;SDS011;47256;18.904;-99.054;2023-03-01T09:21:16;24.13;;;10.38;;
61385;SDS011;47256;18.904;-99.054;2023-03-01T09:23:45;39.40;;;10.93;;
61385;SDS011;47256;18.904;-99.054;2023-03-01T09:26:14;22.25;;;9.93;;
61385;SDS011;47256;18.904;-99.054;2023-03-01T09:28:52;29.83;;;8.98;;
61385;SDS011;47256;18.904;-99.054;2023-03-01T09:31:20;28.23;;;8.73;;
61385;SDS011;47256;18.904;-99.054;2023-03-01T09:33:50;29.02;;;9.85;;
61385;SDS011;47256;18.904;-99.054;2023-03-01T09:36:21;26.38;;;7.50;;
61385;SDS011;47256;18.904;-99.054;2023-03-01T09:38:49;19.77;;;7.47;;
61385;SDS011;47256;18.904;-99.054;2023-03-01T09:43:59;28.35;;;8.30;;
61385;SDS011;47256;18.904;-99.054;2023-03-01T09:46:40;16.73;;;5.63;;
61385;SDS011;47256;18.904;-99.054;2023-03-01T09:49:19;17.08;;;6.35;;
61385;SDS011;47256;18.904;-99.054;2023-03-01T09:54:55;28.27;;;6.78;;
61385;SDS011;47256;18.904;-99.054;2023-03-01T09:57:28;28.48;;;6.93;;
61385;SDS011;47256;18.904;-99.054;2023-03-01T10:00:16;32.60;;;6.97;;
61385;SDS011;47256;18.904;-99.054;2023-03-01T10:03:01;22.02;;;8.48;;
61385;SDS011;47256;18.904;-99.054;2023-03-01T10:11:30;22.45;;;7.88;;
61385;SDS011;47256;18.904;-99.054;2023-03-01T10:14:02;22.08;;;7.38;;
61385;SDS011;47256;18.904;-99.054;2023-03-01T10:17:09;15.45;;;6.68;;
61385;SDS011;47256;18.904;-99.054;2023-03-01T10:19:55;18.83;;;5.47;;
61385;SDS011;47256;18.904;-99.054;2023-03-01T10:22:35;24.73;;;6.70;;
61385;SDS011;47256;18.904;-99.054;2023-03-01T10:25:03;21.35;;;5.30;;
61385;SDS011;47256;18.904;-99.054;2023-03-01T10:27:37;17.95;;;6.28;;
61385;SDS011;47256;18.904;-99.054;2023-03-01T10:30:19;17.35;;;6.55;;
61385;SDS011;47256;18.904;-99.054;2023-03-01T10:32:49;26.33;;;6.95;;
61385;SDS011;47256;18.904;-99.054;2023-03-01T10:35:20;20.67;;;7.70;;
61385;SDS011;47256;18.904;-99.054;2023-03-01T10:40:35;18.15;;;5.18;;
61385;SDS011;47256;18.904;-99.054;2023-03-01T10:43:04;15.02;;;6.90;;
61385;SDS011;47256;18.904;-99.054;2023-03-01T10:45:36;17.90;;;6.38;;
61385;SDS011;47256;18.904;-99.054;2023-03-01T10:50:50;19.05;;;6.07;;
61385;SDS011;47256;18.904;-99.054;2023-03-01T10:56:06;12.88;;;4.63;;
61385;SDS011;47256;18.904;-99.054;2023-03-01T10:58:37;9.15;;;6.00;;
61385;SDS011;47256;18.904;-99.054;2023-03-01T11:03:43;7.75;;;4.28;;
61385;SDS011;47256;18.904;-99.054;2023-03-01T11:08:40;13.90;;;6.22;;
61385;SDS011;47256;18.904;-99.054;2023-03-01T11:21:38;10.30;;;5.78;;
61385;SDS011;47256;18.904;-99.054;2023-03-01T11:24:14;25.88;;;7.63;;
61385;SDS011;47256;18.904;-99.054;2023-03-01T11:26:44;26.70;;;6.25;;
61385;SDS011;47256;18.904;-99.054;2023-03-01T11:29:35;22.85;;;7.40;;
61385;SDS011;47256;18.904;-99.054;2023-03-01T11:32:09;18.00;;;6.10;;
61385;SDS011;47256;18.904;-99.054;2023-03-01T11:40:40;20.60;;;6.70;;
61385;SDS011;47256;18.904;-99.054;2023-03-01T11:51:48;8.98;;;4.70;;
61385;SDS011;47256;18.904;-99.054;2023-03-01T12:08:43;16.45;;;6.32;;
61385;SDS011;47256;18.904;-99.054;2023-03-01T12:14:42;14.63;;;5.75;;
61385;SDS011;47256;18.904;-99.054;2023-03-01T12:34:01;14.00;;;5.90;;
61385;SDS011;47256;18.904;-99.054;2023-03-01T12:44:48;10.68;;;5.00;;
61385;SDS011;47256;18.904;-99.054;2023-03-01T12:51:15;19.45;;;4.60;;
61385;SDS011;47256;18.904;-99.054;2023-03-01T12:56:04;12.07;;;5.93;;
61385;SDS011;47256;18.904;-99.054;2023-03-01T13:04:18;20.88;;;7.78;;
61385;SDS011;47256;18.904;-99.054;2023-03-01T13:10:04;25.25;;;5.78;;
61385;SDS011;47256;18.904;-99.054;2023-03-01T13:20:18;14.23;;;5.95;;
61385;SDS011;47256;18.904;-99.054;2023-03-01T13:23:02;39.30;;;7.57;;
61385;SDS011;47256;18.904;-99.054;2023-03-01T13:30:59;32.03;;;4.78;;
61385;SDS011;47256;18.904;-99.054;2023-03-01T13:36:02;16.90;;;5.38;;
61385;SDS011;47256;18.904;-99.054;2023-03-01T13:44:21;25.70;;;7.22;;
61385;SDS011;47256;18.904;-99.054;2023-03-01T13:57:51;10.55;;;4.18;;
61385;SDS011;47256;18.904;-99.054;2023-03-01T14:03:27;11.43;;;4.80;;
61385;SDS011;47256;18.904;-99.054;2023-03-01T14:06:01;13.13;;;4.40;;
61385;SDS011;47256;18.904;-99.054;2023-03-01T14:08:33;11.57;;;3.75;;
61385;SDS011;47256;18.904;-99.054;2023-03-01T14:19:54;11.40;;;5.28;;
61385;SDS011;47256;18.904;-99.054;2023-03-01T14:22:32;17.73;;;5.13;;
61385;SDS011;47256;18.904;-99.054;2023-03-01T14:25:05;14.25;;;4.88;;
61385;SDS011;47256;18.904;-99.054;2023-03-01T14:28:22;10.02;;;4.80;;
61385;SDS011;47256;18.904;-99.054;2023-03-01T14:30:53;14.77;;;5.25;;
61385;SDS011;47256;18.904;-99.054;2023-03-01T14:35:53;16.25;;;4.88;;
61385;SDS011;47256;18.904;-99.054;2023-03-01T14:41:08;10.07;;;4.03;;
61385;SDS011;47256;18.904;-99.054;2023-03-01T14:43:37;6.78;;;3.67;;
61385;SDS011;47256;18.904;-99.054;2023-03-01T14:46:26;11.23;;;4.10;;
61385;SDS011;47256;18.904;-99.054;2023-03-01T14:49:01;13.98;;;4.18;;
61385;SDS011;47256;18.904;-99.054;2023-03-01T14:51:42;11.48;;;4.55;;
61385;SDS011;47256;18.904;-99.054;2023-03-01T14:54:37;14.23;;;4.95;;
61385;SDS011;47256;18.904;-99.054;2023-03-01T14:57:15;8.85;;;4.68;;
61385;SDS011;47256;18.904;-99.054;2023-03-01T14:59:50;14.38;;;4.95;;
61385;SDS011;47256;18.904;-99.054;2023-03-01T15:02:21;9.73;;;4.20;;
61385;SDS011;47256;18.904;-99.054;2023-03-01T15:04:54;13.73;;;4.93;;
61385;SDS011;47256;18.904;-99.054;2023-03-01T15:07:30;22.23;;;5.28;;
61385;SDS011;47256;18.904;-99.054;2023-03-01T15:10:01;16.52;;;4.15;;
61385;SDS011;47256;18.904;-99.054;2023-03-01T15:12:38;8.68;;;3.65;;
61385;SDS011;47256;18.904;-99.054;2023-03-01T15:15:20;21.38;;;4.68;;
61385;SDS011;47256;18.904;-99.054;2023-03-01T15:18:00;13.50;;;4.63;;
61385;SDS011;47256;18.904;-99.054;2023-03-01T15:20:30;6.32;;;4.07;;
61385;SDS011;47256;18.904;-99.054;2023-03-01T15:23:05;10.75;;;4.72;;
61385;SDS011;47256;18.904;-99.054;2023-03-01T15:25:43;16.75;;;4.30;;
61385;SDS011;47256;18.904;-99.054;2023-03-01T15:28:15;12.38;;;4.75;;
61385;SDS011;47256;18.904;-99.054;2023-03-01T15:30:51;7.18;;;4.00;;
61385;SDS011;47256;18.904;-99.054;2023-03-01T15:36:29;21.50;;;6.03;;
61385;SDS011;47256;18.904;-99.054;2023-03-01T15:38:57;8.68;;;4.53;;
61385;SDS011;47256;18.904;-99.054;2023-03-01T15:41:27;35.85;;;7.07;;
61385;SDS011;47256;18.904;-99.054;2023-03-01T15:44:00;18.33;;;5.43;;
61385;SDS011;47256;18.904;-99.054;2023-03-01T15:46:45;9.50;;;4.40;;
61385;SDS011;47256;18.904;-99.054;2023-03-01T15:52:19;19.75;;;4.50;;
61385;SDS011;47256;18.904;-99.054;2023-03-01T15:54:59;6.28;;;3.85;;
61385;SDS011;47256;18.904;-99.054;2023-03-01T15:57:29;13.80;;;4.10;;
61385;SDS011;47256;18.904;-99.054;2023-03-01T15:59:56;14.52;;;3.63;;
61385;SDS011;47256;18.904;-99.054;2023-03-01T16:02:24;6.57;;;3.17;;
61385;SDS011;47256;18.904;-99.054;2023-03-01T16:04:51;5.50;;;3.33;;
61385;SDS011;47256;18.904;-99.054;2023-03-01T16:07:20;21.92;;;5.07;;
61385;SDS011;47256;18.904;-99.054;2023-03-01T16:09:48;6.25;;;4.47;;
61385;SDS011;47256;18.904;-99.054;2023-03-01T16:12:15;7.15;;;5.53;;
61385;SDS011;47256;18.904;-99.054;2023-03-01T16:14:43;15.68;;;4.60;;
61385;SDS011;47256;18.904;-99.054;2023-03-01T16:17:10;7.93;;;6.55;;
61385;SDS011;47256;18.904;-99.054;2023-03-01T16:19:37;9.45;;;8.10;;
61385;SDS011;47256;18.904;-99.054;2023-03-01T16:22:05;19.40;;;10.45;;
61385;SDS011;47256;18.904;-99.054;2023-03-01T16:24:32;19.35;;;9.40;;
61385;SDS011;47256;18.904;-99.054;2023-03-01T16:27:02;8.93;;;5.13;;
61385;SDS011;47256;18.904;-99.054;2023-03-01T16:29:29;12.35;;;7.60;;
61385;SDS011;47256;18.904;-99.054;2023-03-01T16:31:58;8.95;;;5.78;;
61385;SDS011;47256;18.904;-99.054;2023-03-01T16:34:33;17.33;;;4.97;;
61385;SDS011;47256;18.904;-99.054;2023-03-01T16:37:01;5.20;;;4.10;;
61385;SDS011;47256;18.904;-99.054;2023-03-01T16:39:28;12.20;;;4.65;;
61385;SDS011;47256;18.904;-99.054;2023-03-01T16:41:57;16.83;;;3.65;;
61385;SDS011;47256;18.904;-99.054;2023-03-01T16:44:27;5.28;;;3.67;;
61385;SDS011;47256;18.904;-99.054;2023-03-01T16:46:55;5.85;;;3.53;;
61385;SDS011;47256;18.904;-99.054;2023-03-01T16:49:22;6.50;;;4.90;;
61385;SDS011;47256;18.904;-99.054;2023-03-01T16:51:50;10.82;;;4.15;;
61385;SDS011;47256;18.904;-99.054;2023-03-01T16:54:21;9.90;;;5.43;;
61385;SDS011;47256;18.904;-99.054;2023-03-01T16:56:50;10.20;;;6.22;;
61385;SDS011;47256;18.904;-99.054;2023-03-01T16:59:17;5.18;;;3.08;;
61385;SDS011;47256;18.904;-99.054;2023-03-01T17:01:45;4.72;;;3.30;;
61385;SDS011;47256;18.904;-99.054;2023-03-01T17:04:13;9.90;;;4.40;;
61385;SDS011;47256;18.904;-99.054;2023-03-01T17:06:40;8.25;;;4.68;;
61385;SDS011;47256;18.904;-99.054;2023-03-01T17:09:07;9.35;;;3.20;;
61385;SDS011;47256;18.904;-99.054;2023-03-01T17:11:35;10.93;;;3.45;;
61385;SDS011;47256;18.904;-99.054;2023-03-01T17:14:03;7.85;;;3.42;;
61385;SDS011;47256;18.904;-99.054;2023-03-01T17:16:34;9.20;;;2.70;;
61385;SDS011;47256;18.904;-99.054;2023-03-01T17:19:01;10.25;;;2.58;;
61385;SDS011;47256;18.904;-99.054;2023-03-01T17:21:33;6.13;;;2.85;;
61385;SDS011;47256;18.904;-99.054;2023-03-01T17:24:07;4.68;;;2.80;;
61385;SDS011;47256;18.904;-99.054;2023-03-01T17:26:35;8.40;;;2.90;;
61385;SDS011;47256;18.904;-99.054;2023-03-01T17:29:02;5.22;;;2.70;;
61385;SDS011;47256;18.904;-99.054;2023-03-01T17:31:31;3.00;;;2.55;;
61385;SDS011;47256;18.904;-99.054;2023-03-01T17:33:59;8.70;;;2.42;;
61385;SDS011;47256;18.904;-99.054;2023-03-01T17:36:27;11.27;;;2.88;;
61385;SDS011;47256;18.904;-99.054;2023-03-01T17:38:54;5.60;;;2.58;;
61385;SDS011;47256;18.904;-99.054;2023-03-01T17:41:22;10.75;;;3.38;;